createdAt,value
2018-09-18T00:01:02.705Z,7.47
2018-09-18T00:03:29.936Z,3.20
2018-09-18T00:05:57.159Z,3.70
2018-09-18T00:08:24.290Z,4.00
2018-09-18T00:10:51.402Z,3.30
2018-09-18T00:13:18.538Z,3.80
2018-09-18T00:15:45.727Z,3.73
2018-09-18T00:18:12.862Z,4.20
2018-09-18T00:20:40.043Z,5.33
2018-09-18T00:23:07.163Z,3.63
2018-09-18T00:25:35.035Z,3.80
2018-09-18T00:28:02.223Z,8.07
2018-09-18T00:30:29.406Z,5.57
2018-09-18T00:32:56.563Z,2.90
2018-09-18T00:35:23.694Z,5.07
2018-09-18T00:37:50.807Z,7.90
2018-09-18T00:40:17.974Z,5.33
2018-09-18T00:42:45.094Z,6.03
2018-09-18T00:45:12.219Z,3.87
2018-09-18T00:47:39.331Z,3.20
2018-09-18T00:50:06.494Z,7.53
2018-09-18T00:52:33.687Z,4.43
2018-09-18T00:55:00.906Z,5.17
2018-09-18T00:57:28.100Z,2.93
2018-09-18T00:59:55.222Z,8.13
2018-09-18T01:02:22.367Z,3.93
2018-09-18T01:04:49.571Z,3.03
2018-09-18T01:07:16.709Z,5.30
2018-09-18T01:09:43.852Z,5.43
2018-09-18T01:12:10.967Z,2.97
2018-09-18T01:14:38.295Z,3.40
2018-09-18T01:17:05.744Z,4.97
2018-09-18T01:19:32.879Z,3.60
2018-09-18T01:22:00.044Z,8.10
2018-09-18T01:24:27.246Z,4.60
2018-09-18T01:26:54.354Z,4.30
2018-09-18T01:29:21.503Z,4.10
2018-09-18T01:31:48.628Z,4.10
2018-09-18T01:34:15.756Z,3.13
2018-09-18T01:36:42.887Z,3.53
2018-09-18T01:39:10.405Z,3.03
2018-09-18T01:41:37.770Z,2.50
2018-09-18T01:44:05.031Z,5.13
2018-09-18T01:46:32.194Z,3.30
2018-09-18T01:48:59.339Z,4.20
2018-09-18T01:51:26.501Z,2.77
2018-09-18T01:53:53.610Z,3.47
2018-09-18T01:56:20.744Z,4.60
2018-09-18T01:58:47.855Z,3.30
2018-09-18T02:01:14.958Z,6.57
2018-09-18T02:03:42.104Z,5.23
2018-09-18T02:06:09.272Z,3.07
2018-09-18T02:08:36.439Z,3.23
2018-09-18T02:11:03.610Z,4.90
2018-09-18T02:13:30.752Z,2.50
2018-09-18T02:15:57.890Z,6.87
2018-09-18T02:18:25.164Z,5.73
2018-09-18T02:20:52.490Z,4.20
2018-09-18T02:23:19.605Z,8.33
2018-09-18T02:25:46.734Z,4.10
2018-09-18T02:28:13.843Z,3.73
2018-09-18T02:30:40.950Z,8.27
2018-09-18T02:33:08.055Z,4.57
2018-09-18T02:35:35.163Z,4.43
2018-09-18T02:38:02.324Z,9.53
2018-09-18T02:40:29.475Z,6.50
2018-09-18T02:42:56.644Z,4.60
2018-09-18T02:45:23.796Z,8.23
2018-09-18T02:47:50.893Z,5.27
2018-09-18T02:50:17.990Z,6.07
2018-09-18T02:52:45.100Z,5.00
2018-09-18T02:55:12.207Z,5.27
2018-09-18T02:57:39.316Z,6.40
2018-09-18T03:00:06.463Z,4.40
2018-09-18T03:02:33.606Z,6.37
2018-09-18T03:05:00.807Z,4.77
2018-09-18T03:07:27.979Z,8.67
2018-09-18T03:09:55.083Z,7.13
2018-09-18T03:12:22.206Z,6.43
2018-09-18T03:14:49.339Z,6.63
2018-09-18T03:17:16.470Z,4.60
2018-09-18T03:19:43.670Z,3.30
2018-09-18T03:22:10.829Z,4.50
2018-09-18T03:24:37.923Z,3.97
2018-09-18T03:27:05.151Z,4.20
2018-09-18T03:29:32.309Z,4.67
2018-09-18T03:31:59.461Z,5.60
2018-09-18T03:34:26.605Z,6.43
2018-09-18T03:36:53.713Z,3.80
2018-09-18T03:39:20.802Z,3.10
2018-09-18T03:41:47.914Z,3.30
2018-09-18T03:44:15.063Z,4.03
2018-09-18T03:46:42.221Z,4.67
2018-09-18T03:49:09.315Z,9.17
2018-09-18T03:51:36.475Z,7.30
2018-09-18T03:54:03.623Z,6.63
2018-09-18T03:56:30.795Z,5.40
2018-09-18T03:58:58.023Z,6.63
2018-09-18T04:01:25.126Z,5.47
2018-09-18T04:03:52.239Z,5.17
2018-09-18T04:06:19.349Z,4.37
2018-09-18T04:08:46.467Z,4.23
2018-09-18T04:11:13.586Z,3.33
2018-09-18T04:13:40.682Z,5.23
2018-09-18T04:16:07.781Z,4.33
2018-09-18T04:18:34.884Z,4.90
2018-09-18T04:21:02.041Z,5.53
2018-09-18T04:23:29.246Z,7.10
2018-09-18T04:25:56.364Z,4.83
2018-09-18T04:28:23.477Z,6.03
2018-09-18T04:30:50.570Z,7.50
2018-09-18T04:33:17.691Z,4.77
2018-09-18T04:35:44.807Z,6.27
2018-09-18T04:38:11.990Z,7.10
2018-09-18T04:40:39.097Z,6.60
2018-09-18T04:43:06.295Z,11.37
2018-09-18T04:45:33.432Z,6.53
2018-09-18T04:48:00.606Z,7.77
2018-09-18T04:50:27.959Z,9.70
2018-09-18T04:52:55.063Z,7.00
2018-09-18T04:55:22.164Z,4.87
2018-09-18T04:57:49.505Z,4.77
2018-09-18T05:00:16.671Z,7.23
2018-09-18T05:02:43.779Z,4.50
2018-09-18T05:05:10.871Z,4.03
2018-09-18T05:07:37.978Z,6.97
2018-09-18T05:10:05.171Z,8.00
2018-09-18T05:12:32.474Z,6.53
2018-09-18T05:14:59.615Z,4.67
2018-09-18T05:17:26.742Z,5.20
2018-09-18T05:19:53.839Z,3.93
2018-09-18T05:22:21.135Z,6.23
2018-09-18T05:24:48.261Z,4.53
2018-09-18T05:27:15.388Z,5.00
2018-09-18T05:29:42.505Z,8.40
2018-09-18T05:32:09.623Z,8.57
2018-09-18T05:34:36.725Z,6.77
2018-09-18T05:37:04.071Z,9.67
2018-09-18T05:39:31.206Z,4.63
2018-09-18T05:41:58.393Z,7.87
2018-09-18T05:44:25.514Z,6.50
2018-09-18T05:46:52.693Z,6.60
2018-09-18T05:49:19.890Z,8.00
2018-09-18T05:51:47.243Z,8.00
2018-09-18T05:54:14.353Z,14.57
2018-09-18T05:56:41.644Z,8.37
2018-09-18T05:59:08.767Z,7.73
2018-09-18T06:01:35.904Z,6.53
2018-09-18T06:04:03.104Z,14.30
2018-09-18T06:06:30.267Z,7.53
2018-09-18T06:08:57.424Z,9.03
2018-09-18T06:11:24.548Z,13.07
2018-09-18T06:13:51.672Z,15.17
2018-09-18T06:16:18.771Z,7.57
2018-09-18T06:18:45.948Z,16.20
2018-09-18T06:21:13.000Z,11.70
2018-09-18T06:23:40.139Z,4.97
2018-09-18T06:26:07.346Z,8.17
2018-09-18T06:28:34.481Z,9.93
2018-09-18T06:31:01.621Z,9.70
2018-09-18T06:33:28.839Z,10.03
2018-09-18T06:35:55.998Z,6.47
2018-09-18T06:38:23.082Z,7.13
2018-09-18T06:40:50.197Z,7.70
2018-09-18T06:43:17.826Z,10.95
2018-09-18T06:45:44.942Z,8.63
2018-09-18T06:48:12.360Z,6.40
2018-09-18T06:50:39.491Z,8.38
2018-09-18T06:53:06.891Z,16.77
2018-09-18T06:55:34.030Z,8.88
2018-09-18T06:58:01.188Z,6.55
2018-09-18T07:00:28.335Z,7.90
2018-09-18T07:02:55.452Z,8.33
2018-09-18T07:05:22.567Z,9.33
2018-09-18T07:07:49.668Z,8.80
2018-09-18T07:10:16.791Z,15.85
2018-09-18T07:12:43.946Z,18.98
2018-09-18T07:15:11.057Z,12.60
2018-09-18T07:17:38.191Z,10.25
2018-09-18T07:20:05.557Z,11.63
2018-09-18T07:22:32.706Z,10.65
2018-09-18T07:24:59.890Z,7.75
2018-09-18T07:27:27.011Z,8.23
2018-09-18T07:29:54.120Z,6.05
2018-09-18T07:32:21.252Z,8.83
2018-09-18T07:34:48.361Z,10.60
2018-09-18T07:37:15.488Z,9.73
2018-09-18T07:39:42.630Z,9.85
2018-09-18T07:42:09.730Z,7.00
2018-09-18T07:44:36.836Z,7.78
2018-09-18T07:47:04.010Z,9.35
2018-09-18T07:49:31.133Z,8.38
2018-09-18T07:51:58.333Z,16.07
2018-09-18T07:54:25.446Z,10.82
2018-09-18T07:56:52.557Z,8.30
2018-09-18T07:59:19.733Z,9.08
2018-09-18T08:01:46.870Z,8.48
2018-09-18T08:04:13.990Z,10.28
2018-09-18T08:06:41.161Z,40.20
2018-09-18T08:09:09.374Z,10.85
2018-09-18T08:11:36.519Z,26.82
2018-09-18T08:14:03.716Z,9.28
2018-09-18T08:16:30.857Z,11.15
2018-09-18T08:18:58.137Z,11.55
2018-09-18T08:21:25.177Z,13.83
2018-09-18T08:23:52.363Z,9.58
2018-09-18T08:26:19.499Z,18.70
2018-09-18T08:28:46.619Z,14.95
2018-09-18T08:31:13.743Z,10.10
2018-09-18T08:33:40.863Z,12.45
2018-09-18T08:36:07.987Z,17.12
2018-09-18T08:38:35.116Z,11.88
2018-09-18T08:41:02.251Z,8.23
2018-09-18T08:43:29.418Z,10.75
2018-09-18T08:45:56.619Z,15.70
2018-09-18T08:48:27.928Z,12.33
2018-09-18T08:50:55.052Z,13.93
2018-09-18T08:53:22.212Z,13.00
2018-09-18T08:55:49.354Z,11.57
2018-09-18T08:58:16.447Z,17.12
2018-09-18T09:00:43.616Z,12.90
2018-09-18T09:03:10.823Z,14.55
2018-09-18T09:05:37.834Z,18.23
2018-09-18T09:08:05.064Z,21.45
2018-09-18T09:10:32.122Z,17.07
2018-09-18T09:12:59.327Z,25.90
2018-09-18T09:15:26.410Z,22.25
2018-09-18T09:17:53.664Z,14.98
2018-09-18T09:20:20.750Z,23.35
2018-09-18T09:22:47.963Z,25.62
2018-09-18T09:25:15.025Z,16.45
2018-09-18T09:27:42.174Z,42.33
2018-09-18T09:30:09.402Z,25.05
2018-09-18T09:32:36.420Z,18.00
2018-09-18T09:35:03.600Z,12.93
2018-09-18T09:37:30.791Z,24.32
2018-09-18T09:39:57.938Z,26.12
2018-09-18T09:42:25.074Z,23.10
2018-09-18T09:44:52.219Z,29.77
2018-09-18T09:47:19.284Z,19.17
2018-09-18T09:49:46.434Z,20.15
2018-09-18T09:52:13.553Z,15.23
2018-09-18T09:54:40.647Z,9.93
2018-09-18T09:57:07.813Z,14.13
2018-09-18T09:59:34.975Z,23.73
2018-09-18T10:02:07.848Z,22.10
2018-09-18T10:04:34.960Z,9.48
2018-09-18T10:07:02.109Z,14.75
2018-09-18T10:09:29.285Z,15.48
2018-09-18T10:11:56.434Z,20.08
2018-09-18T10:14:23.537Z,12.05
2018-09-18T10:16:50.634Z,10.53
2018-09-18T10:19:17.768Z,12.82
2018-09-18T10:21:44.887Z,12.58
2018-09-18T10:24:12.007Z,15.25
2018-09-18T10:26:39.764Z,16.17
2018-09-18T10:29:06.871Z,12.37
2018-09-18T10:31:34.049Z,14.20
2018-09-18T10:34:01.214Z,13.03
2018-09-18T10:36:28.374Z,11.48
2018-09-18T10:38:55.522Z,20.77
2018-09-18T10:41:22.757Z,13.48
2018-09-18T10:43:49.846Z,15.95
2018-09-18T10:46:16.977Z,17.73
2018-09-18T10:48:49.766Z,20.23
2018-09-18T10:51:16.850Z,16.23
2018-09-18T10:53:43.973Z,9.18
2018-09-18T10:56:11.343Z,11.53
2018-09-18T10:58:38.502Z,13.15
2018-09-18T11:01:06.060Z,9.80
2018-09-18T11:03:33.521Z,15.88
2018-09-18T11:06:00.618Z,13.95
2018-09-18T11:08:27.947Z,13.25
2018-09-18T11:10:54.996Z,11.55
2018-09-18T11:13:22.199Z,12.82
2018-09-18T11:15:49.302Z,16.77
2018-09-18T11:18:16.415Z,11.15
2018-09-18T11:20:43.539Z,9.05
2018-09-18T11:23:10.898Z,12.35
2018-09-18T11:25:38.116Z,9.73
2018-09-18T11:28:05.143Z,20.97
2018-09-18T11:30:32.248Z,9.13
2018-09-18T11:32:59.502Z,17.77
2018-09-18T11:35:26.569Z,16.23
2018-09-18T11:37:53.723Z,13.05
2018-09-18T11:40:20.851Z,11.83
2018-09-18T11:42:47.986Z,18.30
2018-09-18T11:45:15.088Z,13.88
2018-09-18T11:47:42.206Z,17.62
2018-09-18T11:50:09.398Z,10.32
2018-09-18T11:52:36.519Z,11.25
2018-09-18T11:55:03.656Z,11.48
2018-09-18T11:57:30.777Z,15.60
2018-09-18T11:59:57.937Z,11.68
2018-09-18T12:02:25.090Z,9.08
2018-09-18T12:04:52.388Z,10.60
2018-09-18T12:07:19.524Z,10.20
2018-09-18T12:09:46.674Z,11.95
2018-09-18T12:12:13.796Z,15.68
2018-09-18T12:14:40.939Z,9.25
2018-09-18T12:17:08.086Z,8.05
2018-09-18T12:19:35.175Z,15.28
2018-09-18T12:22:02.375Z,18.52
2018-09-18T12:24:29.559Z,13.75
2018-09-18T12:26:56.739Z,7.72
2018-09-18T12:29:23.882Z,14.03
2018-09-18T12:31:51.011Z,7.78
2018-09-18T12:34:18.131Z,9.45
2018-09-18T12:36:45.270Z,13.88
2018-09-18T12:39:12.377Z,14.85
2018-09-18T12:41:40.164Z,10.75
2018-09-18T12:44:07.401Z,11.00
2018-09-18T12:46:34.511Z,12.70
2018-09-18T12:49:01.660Z,12.07
2018-09-18T12:51:28.746Z,8.93
2018-09-18T12:53:55.928Z,17.32
2018-09-18T12:56:23.028Z,9.80
2018-09-18T12:58:50.199Z,6.30
2018-09-18T13:01:17.338Z,12.23
2018-09-18T13:03:44.470Z,8.63
2018-09-18T13:06:11.720Z,11.03
2018-09-18T13:08:38.727Z,13.35
2018-09-18T13:11:05.871Z,8.68
2018-09-18T13:13:33.015Z,9.75
2018-09-18T13:16:00.207Z,6.37
2018-09-18T13:18:27.422Z,12.33
2018-09-18T13:20:54.562Z,8.83
2018-09-18T13:23:21.679Z,8.15
2018-09-18T13:25:48.815Z,5.97
2018-09-18T13:28:15.949Z,6.70
2018-09-18T13:30:43.075Z,10.82
2018-09-18T13:33:10.189Z,8.03
2018-09-18T13:35:37.312Z,8.98
2018-09-18T13:38:04.494Z,7.50
2018-09-18T13:40:31.670Z,12.15
2018-09-18T13:42:58.846Z,6.42
2018-09-18T13:45:26.006Z,7.67
2018-09-18T13:47:53.106Z,8.68
2018-09-18T13:50:20.313Z,6.50
2018-09-18T13:52:47.363Z,11.90
2018-09-18T13:55:14.494Z,10.15
2018-09-18T13:57:41.713Z,5.72
2018-09-18T14:00:08.840Z,5.42
2018-09-18T14:02:35.978Z,12.75
2018-09-18T14:05:03.124Z,9.15
2018-09-18T14:07:30.294Z,9.78
2018-09-18T14:09:57.495Z,9.38
2018-09-18T14:12:24.673Z,11.30
2018-09-18T14:14:52.067Z,11.08
2018-09-18T14:17:19.084Z,8.88
2018-09-18T14:19:46.427Z,8.48
2018-09-18T14:22:13.536Z,10.38
2018-09-18T14:24:40.673Z,7.28
2018-09-18T14:27:07.808Z,6.97
2018-09-18T14:29:34.947Z,7.85
2018-09-18T14:32:02.095Z,5.47
2018-09-18T14:34:29.246Z,11.43
2018-09-18T14:36:56.416Z,5.67
2018-09-18T14:39:23.571Z,7.78
2018-09-18T14:41:50.703Z,12.15
2018-09-18T14:44:17.824Z,6.53
2018-09-18T14:46:44.933Z,7.37
2018-09-18T14:49:12.058Z,8.23
2018-09-18T14:51:39.202Z,9.98
2018-09-18T14:54:06.568Z,9.73
2018-09-18T14:56:33.687Z,7.30
2018-09-18T14:59:00.857Z,5.40
2018-09-18T15:01:27.978Z,8.63
2018-09-18T15:03:55.729Z,7.45
2018-09-18T15:06:22.864Z,11.03
2018-09-18T15:08:49.981Z,8.43
2018-09-18T15:11:17.130Z,6.40
2018-09-18T15:13:44.241Z,7.53
2018-09-18T15:16:11.368Z,14.90
2018-09-18T15:18:38.508Z,15.72
2018-09-18T15:21:05.638Z,10.80
2018-09-18T15:23:32.767Z,12.80
2018-09-18T15:25:59.926Z,9.93
2018-09-18T15:28:27.072Z,11.70
2018-09-18T15:30:54.229Z,8.50
2018-09-18T15:33:21.355Z,13.00
2018-09-18T15:35:48.508Z,6.47
2018-09-18T15:38:15.638Z,6.87
2018-09-18T15:40:42.793Z,10.55
2018-09-18T15:43:10.025Z,9.38
2018-09-18T15:45:37.114Z,8.38
2018-09-18T15:48:04.207Z,11.38
2018-09-18T15:50:31.347Z,9.65
2018-09-18T15:52:58.529Z,5.83
2018-09-18T15:55:25.813Z,5.78
2018-09-18T15:57:52.933Z,7.37
2018-09-18T16:00:19.927Z,10.98
2018-09-18T16:02:47.115Z,10.78
2018-09-18T16:05:14.230Z,7.62
2018-09-18T16:07:41.451Z,6.97
2018-09-18T16:10:08.552Z,6.58
2018-09-18T16:12:35.660Z,8.50
2018-09-18T16:15:02.912Z,9.10
2018-09-18T16:17:30.165Z,9.63
2018-09-18T16:19:57.270Z,8.38
2018-09-18T16:22:24.521Z,10.48
2018-09-18T16:24:51.878Z,10.85
2018-09-18T16:27:18.931Z,14.10
2018-09-18T16:29:46.066Z,6.67
2018-09-18T16:32:13.167Z,9.05
2018-09-18T16:34:40.326Z,8.78
2018-09-18T16:37:07.781Z,9.58
2018-09-18T16:39:34.915Z,9.83
2018-09-18T16:42:02.043Z,9.65
2018-09-18T16:44:29.208Z,6.67
2018-09-18T16:46:56.461Z,7.95
2018-09-18T16:49:23.510Z,10.48
2018-09-18T16:51:50.676Z,10.25
2018-09-18T16:54:17.844Z,11.00
2018-09-18T16:56:44.886Z,13.55
2018-09-18T16:59:12.012Z,9.98
2018-09-18T17:01:39.167Z,9.43
2018-09-18T17:04:06.282Z,8.90
2018-09-18T17:06:33.443Z,8.68
2018-09-18T17:09:00.535Z,9.10
2018-09-18T17:11:27.723Z,10.93
2018-09-18T17:13:54.901Z,9.80
2018-09-18T17:16:22.024Z,10.72
2018-09-18T17:18:49.097Z,7.45
2018-09-18T17:21:16.232Z,12.60
2018-09-18T17:23:43.365Z,10.13
2018-09-18T17:26:10.512Z,10.93
2018-09-18T17:28:37.807Z,14.25
2018-09-18T17:31:05.394Z,12.47
2018-09-18T17:33:32.505Z,10.10
2018-09-18T17:35:59.715Z,11.15
2018-09-18T17:38:27.121Z,12.53
2018-09-18T17:40:55.155Z,6.83
2018-09-18T17:43:22.579Z,12.10
2018-09-18T17:45:49.720Z,16.17
2018-09-18T17:48:16.815Z,13.20
2018-09-18T17:50:44.062Z,10.63
2018-09-18T17:53:11.192Z,14.43
2018-09-18T17:55:38.447Z,9.33
2018-09-18T17:58:05.580Z,7.47
2018-09-18T18:00:32.772Z,8.93
2018-09-18T18:02:59.967Z,9.95
2018-09-18T18:05:27.186Z,8.13
2018-09-18T18:07:54.263Z,14.65
2018-09-18T18:10:21.368Z,9.25
2018-09-18T18:12:48.538Z,13.98
2018-09-18T18:15:15.652Z,7.12
2018-09-18T18:17:42.916Z,8.63
2018-09-18T18:20:10.018Z,9.33
2018-09-18T18:22:37.106Z,10.80
2018-09-18T18:25:04.247Z,9.28
2018-09-18T18:27:31.410Z,10.50
2018-09-18T18:29:58.598Z,8.68
2018-09-18T18:32:25.818Z,9.38
2018-09-18T18:34:52.984Z,8.80
2018-09-18T18:37:20.125Z,7.13
2018-09-18T18:39:47.251Z,7.20
2018-09-18T18:42:14.364Z,7.80
2018-09-18T18:44:41.509Z,6.03
2018-09-18T18:47:08.706Z,12.93
2018-09-18T18:49:37.197Z,10.40
2018-09-18T18:52:05.083Z,10.47
2018-09-18T18:54:32.263Z,7.77
2018-09-18T18:56:59.505Z,7.83
2018-09-18T18:59:26.587Z,4.77
2018-09-18T19:01:53.697Z,8.10
2018-09-18T19:04:20.856Z,8.90
2018-09-18T19:06:48.039Z,12.47
2018-09-18T19:09:15.127Z,6.03
2018-09-18T19:11:42.253Z,7.53
2018-09-18T19:14:09.366Z,7.47
2018-09-18T19:16:36.476Z,6.57
2018-09-18T19:19:03.608Z,5.40
2018-09-18T19:21:30.710Z,9.77
2018-09-18T19:23:57.838Z,13.90
2018-09-18T19:26:25.258Z,11.93
2018-09-18T19:28:52.374Z,6.60
2018-09-18T19:31:19.628Z,7.90
2018-09-18T19:33:46.738Z,6.03
2018-09-18T19:36:13.846Z,5.80
2018-09-18T19:38:40.967Z,7.47
2018-09-18T19:41:08.075Z,8.53
2018-09-18T19:43:35.188Z,11.70
2018-09-18T19:46:02.360Z,8.90
2018-09-18T19:48:29.551Z,8.03
2018-09-18T19:50:56.734Z,12.03
2018-09-18T19:53:24.081Z,8.37
2018-09-18T19:55:51.187Z,9.10
2018-09-18T19:58:18.357Z,7.53
2018-09-18T20:00:45.492Z,6.67
2018-09-18T20:03:12.660Z,6.60
2018-09-18T20:05:39.735Z,8.83
2018-09-18T20:08:06.852Z,6.47
2018-09-18T20:10:33.979Z,6.20
2018-09-18T20:13:01.154Z,6.23
2018-09-18T20:15:28.308Z,8.80
2018-09-18T20:17:55.459Z,6.73
2018-09-18T20:20:22.582Z,5.43
2018-09-18T20:22:49.714Z,5.93
2018-09-18T20:25:16.831Z,9.20
2018-09-18T20:27:43.959Z,6.27
2018-09-18T20:30:11.086Z,6.67
2018-09-18T20:32:38.223Z,5.63
2018-09-18T20:35:05.377Z,5.70
2018-09-18T20:37:32.595Z,7.30
2018-09-18T20:39:59.723Z,7.87
2018-09-18T20:42:26.897Z,7.40
2018-09-18T20:44:54.023Z,6.30
2018-09-18T20:47:21.139Z,6.30
2018-09-18T20:49:48.259Z,9.43
2018-09-18T20:52:15.390Z,7.20
2018-09-18T20:54:42.588Z,6.60
2018-09-18T20:57:09.762Z,11.67
2018-09-18T20:59:36.894Z,10.83
2018-09-18T21:02:04.018Z,9.57
2018-09-18T21:04:31.114Z,9.33
2018-09-18T21:06:58.230Z,7.53
2018-09-18T21:09:25.390Z,8.30
2018-09-18T21:11:52.520Z,11.20
2018-09-18T21:14:19.637Z,12.13
2018-09-18T21:16:46.758Z,10.20
2018-09-18T21:19:13.866Z,14.17
2018-09-18T21:21:40.991Z,10.17
2018-09-18T21:24:08.131Z,11.83
2018-09-18T21:26:35.254Z,6.73
2018-09-18T21:29:02.373Z,6.77
2018-09-18T21:31:29.499Z,8.63
2018-09-18T21:33:56.646Z,9.33
2018-09-18T21:36:23.807Z,7.23
2018-09-18T21:38:50.924Z,6.23
2018-09-18T21:41:18.089Z,6.43
2018-09-18T21:43:45.165Z,6.50
2018-09-18T21:46:12.276Z,7.57
2018-09-18T21:48:39.474Z,9.17
2018-09-18T21:51:06.678Z,7.17
2018-09-18T21:53:33.810Z,5.50
2018-09-18T21:56:01.005Z,5.13
2018-09-18T21:58:28.154Z,9.73
2018-09-18T22:00:55.306Z,7.50
2018-09-18T22:03:22.454Z,13.93
2018-09-18T22:05:49.583Z,7.50
2018-09-18T22:08:16.691Z,8.37
2018-09-18T22:10:43.867Z,6.93
2018-09-18T22:13:11.129Z,9.50
2018-09-18T22:15:38.237Z,10.43
2018-09-18T22:18:05.363Z,8.43
2018-09-18T22:20:32.480Z,7.63
2018-09-18T22:22:59.639Z,11.57
2018-09-18T22:25:26.876Z,7.80
2018-09-18T22:27:54.003Z,6.40
2018-09-18T22:30:21.154Z,7.97
2018-09-18T22:32:48.267Z,9.57
2018-09-18T22:35:15.700Z,6.90
2018-09-18T22:37:42.845Z,8.13
2018-09-18T22:40:09.991Z,13.10
2018-09-18T22:42:37.153Z,10.40
2018-09-18T22:45:04.527Z,14.70
2018-09-18T22:47:31.675Z,10.70
2018-09-18T22:49:58.802Z,16.07
2018-09-18T22:52:25.986Z,11.33
2018-09-18T22:54:53.215Z,7.87
2018-09-18T22:57:20.341Z,6.90
2018-09-18T22:59:47.468Z,6.17
2018-09-18T23:02:14.619Z,8.07
2018-09-18T23:04:41.753Z,7.17
2018-09-18T23:07:08.854Z,11.77
2018-09-18T23:09:36.027Z,8.00
2018-09-18T23:12:03.205Z,8.17
2018-09-18T23:14:30.551Z,4.63
2018-09-18T23:16:57.686Z,10.23
2018-09-18T23:19:24.976Z,16.23
2018-09-18T23:21:52.114Z,13.43
2018-09-18T23:24:19.227Z,13.87
2018-09-18T23:26:46.344Z,11.93
2018-09-18T23:29:13.446Z,11.60
2018-09-18T23:31:40.548Z,10.67
2018-09-18T23:34:07.654Z,9.30
2018-09-18T23:36:34.894Z,6.53
2018-09-18T23:39:02.698Z,7.00
2018-09-18T23:41:30.047Z,8.07
2018-09-18T23:43:57.195Z,9.57
2018-09-18T23:46:24.458Z,8.97
2018-09-18T23:48:51.590Z,6.53
2018-09-18T23:51:18.717Z,6.87
2018-09-18T23:53:45.834Z,10.80
2018-09-18T23:56:12.940Z,8.47
2018-09-18T23:58:40.059Z,11.93
